»·PEaware :: DAL2258 KPDX-KSEA

DAL2258 :: KPDX-KSEA

FLIGHT INFORMATION

Flight Status: Arrived
Operator:
Delta Air Lines
More flights by this operator :: More flights under this callsign
Pilot: Max W. (2591)
Aircraft: AIRBUS A319
(A319)
More flights by this aircraft type
Origin: KPDX Portland Intl
United States
Destination: KSEA Seattle-Tacoma Intl
United States
More flights between these airports :: More routes between these airports
Route: +COUGA KRIEG HAWKZ6
File this flight plan on PilotEdge
Remarks:
Altitude:
(Current/Filed)
22,000ft
Speed:
(Current/Filed)
450kts
Departed: 04-Jul-18 01:13 PM
Arrived: 04-Jul-18 01:40 PM
Distance/Time
Traveled:
112nm/0:27
Distance/Time
To Go:
Arrived

Flight Plot

Page will automatically refresh every two minutes.

Flight plan parsing failed; only flown route is shown


Map Options




Map Legend


Flown Route
Filed Route
Departure Airport
Arrival Airport
Navaid (VOR, NDB)
Fix

Horizontal Profiles

Position Reports

Time Latitude Longitude Heading Altitude Ground
Speed
04-Jul-18 13:01 45.588848 -122.596899 30 32ft 0kts
04-Jul-18 13:02 45.588848 -122.596899 30 32ft 0kts
04-Jul-18 13:03 45.588848 -122.596899 30 32ft 0kts
04-Jul-18 13:04 45.588848 -122.596899 30 32ft 0kts
04-Jul-18 13:05 45.588848 -122.596899 30 32ft 0kts
04-Jul-18 13:06 45.588848 -122.596899 30 32ft 0kts
04-Jul-18 13:07 45.588848 -122.596899 30 32ft 0kts
04-Jul-18 13:08 45.588846 -122.596900 30 32ft 0kts
04-Jul-18 13:09 45.588226 -122.597431 30 32ft 2kts
04-Jul-18 13:10 45.587952 -122.597665 30 32ft 0kts
04-Jul-18 13:11 45.588267 -122.598304 297 32ft 15kts
04-Jul-18 13:12 45.591072 -122.602277 44 32ft 16kts
04-Jul-18 13:13 45.594857 -122.595758 107 32ft 17kts
04-Jul-18 13:14 45.589041 -122.580866 117 55ft 144kts
04-Jul-18 13:15 45.567976 -122.528724 118 2324ft 172kts
04-Jul-18 13:16 45.540017 -122.457609 117 3861ft 239kts
04-Jul-18 13:17 45.548101 -122.369624 33 6953ft 269kts
04-Jul-18 13:18 45.626345 -122.386383 337 9669ft 312kts
04-Jul-18 13:19 45.710998 -122.440091 336 11489ft 363kts
04-Jul-18 13:20 45.809583 -122.500980 335 13447ft 398kts
04-Jul-18 13:21 45.912875 -122.565265 334 15711ft 412kts
04-Jul-18 13:22 46.020118 -122.632236 333 17753ft 426kts
04-Jul-18 13:23 46.133820 -122.686852 350 19633ft 442kts
04-Jul-18 13:24 46.257802 -122.709355 349 21343ft 453kts
04-Jul-18 13:25 46.383168 -122.725302 357 21965ft 441kts
04-Jul-18 13:26 46.501608 -122.728420 356 21251ft 398kts
04-Jul-18 13:27 46.610407 -122.732627 357 17915ft 379kts
04-Jul-18 13:28 46.713485 -122.736341 358 14721ft 361kts
04-Jul-18 13:29 46.805163 -122.717346 39 13135ft 322kts
04-Jul-18 13:30 46.871298 -122.631408 46 11689ft 318kts
04-Jul-18 13:31 46.932826 -122.544249 49 10310ft 294kts
04-Jul-18 13:32 46.990742 -122.461097 36 8809ft 291kts
04-Jul-18 13:33 47.058273 -122.405646 34 7680ft 257kts
04-Jul-18 13:34 47.118587 -122.354246 33 6155ft 246kts
04-Jul-18 13:35 47.180721 -122.322459 21 5366ft 221kts
04-Jul-18 13:36 47.238866 -122.312943 3 4780ft 207kts
04-Jul-18 13:37 47.294192 -122.312512 2 3533ft 191kts
04-Jul-18 13:38 47.344947 -122.312053 2 2484ft 157kts
04-Jul-18 13:39 47.383022 -122.311633 2 1621ft 129kts
04-Jul-18 13:40 47.419335 -122.311420 0 894ft 132kts
04-Jul-18 13:41 47.450171 -122.310489 28 447ft 30kts
04-Jul-18 13:42 47.451952 -122.306350 165 447ft 9kts
04-Jul-18 13:43 47.449593 -122.304260 131 447ft 10kts
04-Jul-18 13:44 47.449454 -122.304058 137 447ft 0kts
04-Jul-18 13:45 47.449454 -122.304058 137 447ft 0kts
04-Jul-18 13:46 47.449454 -122.304058 137 447ft 0kts
04-Jul-18 13:47 47.449454 -122.304058 137 447ft 0kts
04-Jul-18 13:48 47.449454 -122.304058 137 447ft 0kts
04-Jul-18 13:48 47.449454 -122.304058 137 447ft 0kts
04-Jul-18 13:49 47.449454 -122.304058 137 447ft 0kts
04-Jul-18 13:50 47.449454 -122.304058 137 447ft 0kts
04-Jul-18 13:51 47.449454 -122.304058 137 447ft 0kts
04-Jul-18 13:52 47.449454 -122.304058 137 447ft 0kts
04-Jul-18 13:53 47.449454 -122.304058 137 447ft 0kts
04-Jul-18 13:54 47.449454 -122.304058 137 447ft 0kts

Navigation Log

Ident Type
Flight plan parsing failed, navigation log unavailable